createdAt,value
2019-01-20T00:01:55.522Z,-6.38
2019-01-20T00:04:03.036Z,-6.31
2019-01-20T00:06:10.659Z,-6.34
2019-01-20T00:08:18.097Z,-6.34
2019-01-20T00:10:25.162Z,-6.33
2019-01-20T00:12:32.417Z,-6.37
2019-01-20T00:14:39.764Z,-6.52
2019-01-20T00:16:46.862Z,-6.12
2019-01-20T00:18:53.948Z,-6.21
2019-01-20T00:21:01.440Z,-6.24
2019-01-20T00:23:08.730Z,-6.40
2019-01-20T00:25:16.270Z,-6.58
2019-01-20T00:27:23.589Z,-6.56
2019-01-20T00:29:31.033Z,-6.44
2019-01-20T00:31:38.934Z,-6.43
2019-01-20T00:33:46.332Z,-6.33
2019-01-20T00:35:53.329Z,-6.31
2019-01-20T00:38:01.043Z,-6.33
2019-01-20T00:40:10.529Z,-6.34
2019-01-20T00:42:17.987Z,-6.33
2019-01-20T00:44:25.776Z,-6.31
2019-01-20T00:46:33.293Z,-6.30
2019-01-20T00:48:40.689Z,-6.32
2019-01-20T00:50:48.182Z,-6.28
2019-01-20T00:52:55.367Z,-6.36
2019-01-20T00:55:02.860Z,-6.51
2019-01-20T00:57:10.503Z,-6.41
2019-01-20T00:59:17.888Z,-6.46
2019-01-20T01:01:27.398Z,-6.41
2019-01-20T01:03:34.709Z,-6.37
2019-01-20T01:05:42.105Z,-6.40
2019-01-20T01:07:50.351Z,-6.32
2019-01-20T01:09:57.908Z,-6.34
2019-01-20T01:12:05.078Z,-6.31
2019-01-20T01:14:12.106Z,-6.38
2019-01-20T01:16:19.286Z,-6.55
2019-01-20T01:18:26.646Z,-6.46
2019-01-20T01:20:33.984Z,-6.38
2019-01-20T01:22:41.577Z,-6.52
2019-01-20T01:24:48.995Z,-6.49
2019-01-20T01:26:56.290Z,-6.41
2019-01-20T01:29:03.728Z,-6.44
2019-01-20T01:31:11.201Z,-6.35
2019-01-20T01:33:18.563Z,-6.33
2019-01-20T01:35:26.296Z,-6.40
2019-01-20T01:37:33.740Z,-6.36
2019-01-20T01:39:41.215Z,-6.37
2019-01-20T01:41:48.485Z,-6.48
2019-01-20T01:43:55.960Z,-6.40
2019-01-20T01:46:03.376Z,-6.41
2019-01-20T01:48:10.889Z,-6.32
2019-01-20T01:50:19.100Z,-6.26
2019-01-20T01:52:26.438Z,-6.26
2019-01-20T01:54:33.960Z,-6.16
2019-01-20T01:56:41.204Z,-6.19
2019-01-20T01:58:48.634Z,-6.16
2019-01-20T02:00:56.161Z,-6.08
2019-01-20T02:03:03.567Z,-6.01
2019-01-20T02:05:11.292Z,-5.99
2019-01-20T02:07:18.794Z,-5.92
2019-01-20T02:09:26.571Z,-5.94
2019-01-20T02:11:33.991Z,-5.98
2019-01-20T02:13:41.449Z,-5.90
2019-01-20T02:15:48.758Z,-5.86
2019-01-20T02:17:56.201Z,-5.80
2019-01-20T02:20:03.719Z,-5.75
2019-01-20T02:22:11.331Z,-5.76
2019-01-20T02:24:18.866Z,-5.71
2019-01-20T02:26:26.358Z,-5.61
2019-01-20T02:28:33.653Z,-5.54
2019-01-20T02:30:40.815Z,-5.56
2019-01-20T02:32:48.421Z,-5.48
2019-01-20T02:34:55.849Z,-5.41
2019-01-20T02:37:03.181Z,-5.47
2019-01-20T02:39:10.802Z,-5.38
2019-01-20T02:41:18.060Z,-5.28
2019-01-20T02:43:25.419Z,-5.24
2019-01-20T02:45:32.702Z,-5.22
2019-01-20T02:47:40.092Z,-5.21
2019-01-20T02:49:47.852Z,-5.22
2019-01-20T02:51:55.518Z,-5.21
2019-01-20T02:54:02.983Z,-5.18
2019-01-20T02:56:10.274Z,-5.10
2019-01-20T02:58:17.805Z,-5.13
2019-01-20T03:00:25.928Z,-5.13
2019-01-20T03:02:33.351Z,-5.07
2019-01-20T03:04:40.832Z,-5.06
2019-01-20T03:06:48.324Z,-5.10
2019-01-20T03:08:55.696Z,-5.01
2019-01-20T03:11:03.577Z,-5.02
2019-01-20T03:13:10.914Z,-4.96
2019-01-20T03:15:18.390Z,-5.01
2019-01-20T03:17:25.931Z,-4.97
2019-01-20T03:19:33.332Z,-4.97
2019-01-20T03:21:40.648Z,-4.80
2019-01-20T03:23:48.405Z,-4.73
2019-01-20T03:25:55.741Z,-4.76
2019-01-20T03:28:03.218Z,-4.71
2019-01-20T03:30:15.150Z,-4.73
2019-01-20T03:32:22.559Z,-4.80
2019-01-20T03:34:29.946Z,-4.80
2019-01-20T03:36:37.321Z,-4.78
2019-01-20T03:38:44.757Z,-4.77
2019-01-20T03:40:52.096Z,-4.84
2019-01-20T03:42:59.671Z,-4.83
2019-01-20T03:45:09.236Z,-4.77
2019-01-20T03:47:16.636Z,-4.66
2019-01-20T03:49:24.093Z,-4.72
2019-01-20T03:51:31.130Z,-4.75
2019-01-20T03:53:38.191Z,-4.66
2019-01-20T03:55:45.663Z,-4.68
2019-01-20T03:57:53.053Z,-4.63
2019-01-20T04:00:00.479Z,-4.69
2019-01-20T04:02:07.916Z,-4.71
2019-01-20T04:04:15.318Z,-4.79
2019-01-20T04:06:22.702Z,-4.81
2019-01-20T04:08:30.218Z,-4.79
2019-01-20T04:10:37.572Z,-4.82
2019-01-20T04:12:45.454Z,-4.76
2019-01-20T04:14:52.909Z,-4.82
2019-01-20T04:17:00.262Z,-4.87
2019-01-20T04:19:07.622Z,-5.00
2019-01-20T04:21:15.050Z,-5.08
2019-01-20T04:23:22.390Z,-5.12
2019-01-20T04:25:29.722Z,-5.16
2019-01-20T04:27:37.143Z,-5.18
2019-01-20T04:29:44.493Z,-4.98
2019-01-20T04:31:51.666Z,-4.97
2019-01-20T04:33:59.041Z,-4.91
2019-01-20T04:36:06.213Z,-5.14
2019-01-20T04:38:13.623Z,-5.21
2019-01-20T04:40:23.688Z,-5.18
2019-01-20T04:42:31.176Z,-5.24
2019-01-20T04:44:38.510Z,-5.26
2019-01-20T04:46:45.866Z,-5.36
2019-01-20T04:48:53.283Z,-5.40
2019-01-20T04:51:00.741Z,-5.48
2019-01-20T04:53:08.790Z,-5.58
2019-01-20T04:55:16.131Z,-5.65
2019-01-20T04:57:23.695Z,-5.65
2019-01-20T04:59:31.250Z,-5.69
2019-01-20T05:01:38.607Z,-5.67
2019-01-20T05:03:46.174Z,-5.77
2019-01-20T05:05:53.645Z,-5.75
2019-01-20T05:08:01.099Z,-5.82
2019-01-20T05:10:10.307Z,-5.86
2019-01-20T05:12:17.897Z,-5.88
2019-01-20T05:14:25.693Z,-5.91
2019-01-20T05:16:33.138Z,-5.99
2019-01-20T05:18:40.728Z,-5.97
2019-01-20T05:20:48.061Z,-5.96
2019-01-20T05:22:55.431Z,-5.97
2019-01-20T05:25:02.831Z,-6.03
2019-01-20T05:27:10.196Z,-6.00
2019-01-20T05:29:17.780Z,-6.03
2019-01-20T05:31:25.169Z,-6.07
2019-01-20T05:33:32.545Z,-6.27
2019-01-20T05:35:39.924Z,-6.32
2019-01-20T05:37:47.469Z,-6.31
2019-01-20T05:39:54.928Z,-6.26
2019-01-20T05:42:02.147Z,-6.32
2019-01-20T05:44:09.761Z,-6.32
2019-01-20T05:46:17.109Z,-6.34
2019-01-20T05:48:24.539Z,-6.30
2019-01-20T05:50:31.991Z,-6.36
2019-01-20T05:52:39.459Z,-6.42
2019-01-20T05:54:46.817Z,-6.47
2019-01-20T05:56:54.257Z,-6.46
2019-01-20T05:59:01.756Z,-6.48
2019-01-20T06:01:09.104Z,-6.48
2019-01-20T06:03:16.373Z,-6.57
2019-01-20T06:05:23.691Z,-6.64
2019-01-20T06:07:31.161Z,-6.65
2019-01-20T06:09:38.975Z,-6.67
2019-01-20T06:11:46.327Z,-6.67
2019-01-20T06:13:53.705Z,-6.59
2019-01-20T06:16:02.063Z,-6.57
2019-01-20T06:18:09.828Z,-6.62
2019-01-20T06:20:18.533Z,-6.64
2019-01-20T06:22:25.864Z,-6.67
2019-01-20T06:24:33.242Z,-6.80
2019-01-20T06:26:40.764Z,-6.82
2019-01-20T06:28:47.952Z,-6.64
2019-01-20T06:30:55.276Z,-6.74
2019-01-20T06:33:02.676Z,-6.68
2019-01-20T06:35:10.175Z,-6.74
2019-01-20T06:37:17.622Z,-6.82
2019-01-20T06:39:25.007Z,-6.79
2019-01-20T06:41:32.391Z,-6.91
2019-01-20T06:43:40.033Z,-6.96
2019-01-20T06:45:47.414Z,-7.02
2019-01-20T06:47:55.086Z,-6.82
2019-01-20T06:50:02.633Z,-6.66
2019-01-20T06:52:09.893Z,-6.38
2019-01-20T06:54:17.525Z,-6.54
2019-01-20T06:56:25.066Z,-6.71
2019-01-20T06:58:32.384Z,-6.82
2019-01-20T07:00:39.580Z,-6.81
2019-01-20T07:02:46.843Z,-6.84
2019-01-20T07:04:54.216Z,-6.94
2019-01-20T07:07:01.563Z,-6.89
2019-01-20T07:09:10.362Z,-6.45
2019-01-20T07:11:17.799Z,-6.30
2019-01-20T07:13:25.208Z,-6.57
2019-01-20T07:15:32.722Z,-6.77
2019-01-20T07:17:40.389Z,-6.76
2019-01-20T07:19:48.182Z,-6.70
2019-01-20T07:21:55.614Z,-6.76
2019-01-20T07:24:03.300Z,-6.72
2019-01-20T07:26:10.994Z,-6.76
2019-01-20T07:28:18.316Z,-6.84
2019-01-20T07:30:26.998Z,-6.84
2019-01-20T07:32:34.745Z,-6.76
2019-01-20T07:34:42.210Z,-6.63
2019-01-20T07:36:49.530Z,-6.64
2019-01-20T07:38:57.222Z,-6.60
2019-01-20T07:41:04.719Z,-6.56
2019-01-20T07:43:16.704Z,-6.55
2019-01-20T07:45:21.689Z,-6.56
2019-01-20T07:47:30.034Z,-6.55
2019-01-20T07:49:37.870Z,-6.48
2019-01-20T07:51:45.675Z,-6.40
2019-01-20T07:53:53.540Z,-6.29
2019-01-20T07:56:01.229Z,-6.25
2019-01-20T07:58:09.128Z,-6.25
2019-01-20T08:00:19.252Z,-6.37
2019-01-20T08:02:26.880Z,-6.38
2019-01-20T08:04:34.404Z,-6.36
2019-01-20T08:06:41.993Z,-6.27
2019-01-20T08:08:49.501Z,-6.00
2019-01-20T08:10:56.991Z,-5.99
2019-01-20T08:13:06.287Z,-6.06
2019-01-20T08:15:13.953Z,-6.06
2019-01-20T08:17:21.591Z,-6.02
2019-01-20T08:19:29.620Z,-5.95
2019-01-20T08:21:36.973Z,-5.86
2019-01-20T08:23:44.559Z,-5.79
2019-01-20T08:25:52.123Z,-5.68
2019-01-20T08:27:59.638Z,-5.68
2019-01-20T08:30:09.825Z,-5.56
2019-01-20T08:32:18.434Z,-5.53
2019-01-20T08:34:26.137Z,-5.53
2019-01-20T08:36:33.904Z,-5.44
2019-01-20T08:38:41.434Z,-5.42
2019-01-20T08:40:49.078Z,-5.35
2019-01-20T08:42:56.754Z,-5.28
2019-01-20T08:45:04.412Z,-5.35
2019-01-20T08:47:21.618Z,-5.23
2019-01-20T08:49:29.219Z,-5.18
2019-01-20T08:51:39.516Z,-5.34
2019-01-20T08:53:47.188Z,-5.35
2019-01-20T08:55:55.391Z,-5.23
2019-01-20T08:58:03.441Z,-5.16
2019-01-20T09:00:16.163Z,-5.11
2019-01-20T09:02:24.057Z,-5.07
2019-01-20T09:04:31.838Z,-5.03
2019-01-20T09:06:39.110Z,-5.11
2019-01-20T09:08:46.836Z,-4.97
2019-01-20T09:10:54.203Z,-4.98
2019-01-20T09:13:04.100Z,-4.90
2019-01-20T09:15:12.017Z,-4.88
2019-01-20T09:17:19.788Z,-4.77
2019-01-20T09:19:27.269Z,-4.66
2019-01-20T09:21:35.400Z,-4.56
2019-01-20T09:23:43.720Z,-4.60
2019-01-20T09:25:51.232Z,-4.54
2019-01-20T09:28:01.071Z,-4.48
2019-01-20T09:30:14.022Z,-4.36
2019-01-20T09:32:21.472Z,-4.29
2019-01-20T09:34:29.093Z,-4.29
2019-01-20T09:36:36.439Z,-4.36
2019-01-20T09:38:44.687Z,-4.28
2019-01-20T09:40:52.383Z,-4.19
2019-01-20T09:43:01.172Z,-4.15
2019-01-20T09:45:15.138Z,-4.12
2019-01-20T09:47:23.141Z,-4.05
2019-01-20T09:49:31.059Z,-3.86
2019-01-20T09:51:39.113Z,-3.82
2019-01-20T09:53:47.546Z,-3.83
2019-01-20T09:55:55.976Z,-3.91
2019-01-20T09:58:04.377Z,-3.73
2019-01-20T10:00:17.079Z,-3.61
2019-01-20T10:02:25.762Z,-3.53
2019-01-20T10:04:34.035Z,-3.64
2019-01-20T10:06:42.409Z,-3.49
2019-01-20T10:08:50.911Z,-3.45
2019-01-20T10:10:59.449Z,-3.46
2019-01-20T10:13:07.773Z,-3.25
2019-01-20T10:15:16.300Z,-3.39
2019-01-20T10:17:24.672Z,-3.45
2019-01-20T10:19:31.971Z,-3.49
2019-01-20T10:21:39.462Z,-3.51
2019-01-20T10:23:46.847Z,-3.49
2019-01-20T10:25:54.078Z,-3.45
2019-01-20T10:28:01.434Z,-3.40
2019-01-20T10:30:15.717Z,-3.33
2019-01-20T10:32:23.274Z,-3.03
2019-01-20T10:34:31.307Z,-3.01
2019-01-20T10:36:38.909Z,-3.17
2019-01-20T10:38:46.335Z,-3.15
2019-01-20T10:40:53.772Z,-3.17
2019-01-20T10:43:01.301Z,-3.20
2019-01-20T10:45:10.294Z,-3.24
2019-01-20T10:47:18.156Z,-3.22
2019-01-20T10:49:25.599Z,-2.91
2019-01-20T10:51:33.319Z,-2.74
2019-01-20T10:53:40.822Z,-2.84
2019-01-20T10:55:48.276Z,-2.67
2019-01-20T10:57:56.027Z,-2.75
2019-01-20T11:00:03.718Z,-2.80
2019-01-20T11:02:11.488Z,-2.84
2019-01-20T11:04:19.006Z,-2.78
2019-01-20T11:06:26.612Z,-2.76
2019-01-20T11:08:34.649Z,-2.65
2019-01-20T11:10:42.898Z,-2.66
2019-01-20T11:12:51.271Z,-2.66
2019-01-20T11:14:59.774Z,-2.61
2019-01-20T11:17:08.460Z,-2.63
2019-01-20T11:19:16.154Z,-2.60
2019-01-20T11:21:24.540Z,-2.30
2019-01-20T11:23:33.427Z,-2.16
2019-01-20T11:25:45.987Z,-2.26
2019-01-20T11:27:54.178Z,-2.35
2019-01-20T11:30:03.194Z,-2.05
2019-01-20T11:32:10.555Z,-2.11
2019-01-20T11:34:19.217Z,-2.19
2019-01-20T11:36:27.359Z,-2.23
2019-01-20T11:38:35.021Z,-2.26
2019-01-20T11:40:42.769Z,-2.22
2019-01-20T11:42:50.816Z,-2.20
2019-01-20T11:44:58.400Z,-2.16
2019-01-20T11:47:06.068Z,-2.23
2019-01-20T11:49:13.855Z,-2.24
2019-01-20T11:51:21.546Z,-2.18
2019-01-20T11:53:29.888Z,-2.10
2019-01-20T11:55:38.297Z,-2.05
2019-01-20T11:57:46.124Z,-2.00
2019-01-20T11:59:53.893Z,-2.02
2019-01-20T12:02:02.450Z,-2.05
2019-01-20T12:04:10.253Z,-2.09
2019-01-20T12:06:18.226Z,-2.10
2019-01-20T12:08:30.585Z,-2.08
2019-01-20T12:10:35.612Z,-2.03
2019-01-20T12:12:46.417Z,-2.12
2019-01-20T12:14:53.895Z,-2.17
2019-01-20T12:17:01.828Z,-2.09
2019-01-20T12:19:09.230Z,-2.09
2019-01-20T12:21:18.040Z,-2.10
2019-01-20T12:23:25.325Z,-2.09
2019-01-20T12:25:32.855Z,-2.02
2019-01-20T12:27:41.267Z,-2.02
2019-01-20T12:29:51.896Z,-2.05
2019-01-20T12:32:00.615Z,-2.00
2019-01-20T12:34:08.816Z,-1.97
2019-01-20T12:36:16.858Z,-1.99
2019-01-20T12:38:24.927Z,-2.00
2019-01-20T12:40:45.892Z,-1.96
2019-01-20T12:42:53.795Z,-1.96
2019-01-20T12:45:02.299Z,-1.95
2019-01-20T12:47:11.910Z,-1.88
2019-01-20T12:49:19.820Z,-1.81
2019-01-20T12:51:28.616Z,-1.78
2019-01-20T12:53:36.813Z,-1.82
2019-01-20T12:55:44.664Z,-1.71
2019-01-20T12:57:52.355Z,-1.66
2019-01-20T12:59:59.682Z,-1.71
2019-01-20T13:02:06.968Z,-1.67
2019-01-20T13:04:14.319Z,-1.57
2019-01-20T13:06:22.327Z,-1.70
2019-01-20T13:08:29.878Z,-1.79
2019-01-20T13:10:37.805Z,-1.76
2019-01-20T13:12:45.807Z,-1.71
2019-01-20T13:14:54.135Z,-1.67
2019-01-20T13:17:02.691Z,-1.64
2019-01-20T13:19:11.604Z,-1.62
2019-01-20T13:21:20.972Z,-1.62
2019-01-20T13:23:28.938Z,-1.60
2019-01-20T13:25:37.194Z,-1.62
2019-01-20T13:27:45.550Z,-1.69
2019-01-20T13:29:54.485Z,-1.70
2019-01-20T13:32:03.068Z,-1.67
2019-01-20T13:34:10.832Z,-1.65
2019-01-20T13:36:19.093Z,-1.67
2019-01-20T13:38:29.057Z,-1.65
2019-01-20T13:40:45.483Z,-1.67
2019-01-20T13:42:54.376Z,-1.60
2019-01-20T13:45:03.067Z,-1.62
2019-01-20T13:47:11.558Z,-1.58
2019-01-20T13:49:19.964Z,-1.55
2019-01-20T13:51:29.775Z,-1.57
2019-01-20T13:53:38.389Z,-1.58
2019-01-20T13:55:46.643Z,-1.60
2019-01-20T13:57:54.820Z,-1.62
2019-01-20T14:00:02.749Z,-1.64
2019-01-20T14:02:10.842Z,-1.69
2019-01-20T14:04:19.236Z,-1.69
2019-01-20T14:06:27.240Z,-1.69
2019-01-20T14:08:34.412Z,-1.70
2019-01-20T14:10:41.701Z,-1.71
2019-01-20T14:12:48.990Z,-1.74
2019-01-20T14:14:56.330Z,-1.77
2019-01-20T14:17:03.789Z,-1.79
2019-01-20T14:19:11.653Z,-1.84
2019-01-20T14:21:19.143Z,-1.82
2019-01-20T14:23:26.643Z,-1.83
2019-01-20T14:25:34.299Z,-1.84
2019-01-20T14:27:41.584Z,-1.89
2019-01-20T14:29:48.877Z,-1.88
2019-01-20T14:31:56.220Z,-1.87
2019-01-20T14:34:03.520Z,-1.86
2019-01-20T14:36:10.944Z,-1.86
2019-01-20T14:38:18.218Z,-1.85
2019-01-20T14:40:25.438Z,-1.85
2019-01-20T14:42:32.637Z,-1.84
2019-01-20T14:44:39.758Z,-1.83
2019-01-20T14:46:46.843Z,-1.83
2019-01-20T14:48:54.542Z,-1.86
2019-01-20T14:51:01.799Z,-1.87
2019-01-20T14:53:09.434Z,-1.89
2019-01-20T14:55:16.845Z,-1.90
2019-01-20T14:57:24.037Z,-1.88
2019-01-20T14:59:31.235Z,-1.89
2019-01-20T15:01:38.524Z,-1.89
2019-01-20T15:03:45.769Z,-1.91
2019-01-20T15:05:52.996Z,-1.92
2019-01-20T15:08:00.596Z,-1.93
2019-01-20T15:10:10.003Z,-1.97
2019-01-20T15:12:17.141Z,-2.04
2019-01-20T15:14:24.296Z,-2.09
2019-01-20T15:16:31.771Z,-2.12
2019-01-20T15:18:39.077Z,-2.13
2019-01-20T15:20:46.763Z,-2.17
2019-01-20T15:22:53.940Z,-2.19
2019-01-20T15:25:01.934Z,-2.27
2019-01-20T15:27:09.490Z,-2.34
2019-01-20T15:29:16.567Z,-2.34
2019-01-20T15:31:23.610Z,-2.36
2019-01-20T15:33:31.835Z,-2.46
2019-01-20T15:35:39.353Z,-2.45
2019-01-20T15:37:47.045Z,-2.54
2019-01-20T15:39:54.643Z,-2.55
2019-01-20T15:42:02.122Z,-2.58
2019-01-20T15:44:09.849Z,-2.58
2019-01-20T15:46:17.418Z,-2.52
2019-01-20T15:48:25.086Z,-2.54
2019-01-20T15:50:33.510Z,-2.53
2019-01-20T15:52:40.901Z,-2.62
2019-01-20T15:54:48.323Z,-2.70
2019-01-20T15:56:55.863Z,-2.64
2019-01-20T15:59:03.556Z,-2.65
2019-01-20T16:01:10.788Z,-2.67
2019-01-20T16:03:18.024Z,-2.68
2019-01-20T16:05:26.381Z,-2.73
2019-01-20T16:07:33.725Z,-2.69
2019-01-20T16:09:40.874Z,-2.71
2019-01-20T16:11:48.196Z,-2.79
2019-01-20T16:13:56.414Z,-2.83
2019-01-20T16:16:04.276Z,-2.86
2019-01-20T16:18:14.318Z,-2.79
2019-01-20T16:20:21.355Z,-2.76
2019-01-20T16:22:28.910Z,-2.80
2019-01-20T16:24:36.618Z,-2.74
2019-01-20T16:26:44.286Z,-2.76
2019-01-20T16:28:51.849Z,-2.74
2019-01-20T16:30:59.328Z,-2.74
2019-01-20T16:33:06.624Z,-2.73
2019-01-20T16:35:14.827Z,-2.73
2019-01-20T16:37:22.511Z,-2.75
2019-01-20T16:39:30.053Z,-2.71
2019-01-20T16:41:37.490Z,-2.72
2019-01-20T16:43:45.632Z,-2.81
2019-01-20T16:45:53.728Z,-2.73
2019-01-20T16:48:01.115Z,-2.75
2019-01-20T16:50:11.614Z,-2.78
2019-01-20T16:52:20.026Z,-2.80
2019-01-20T16:54:28.825Z,-2.82
2019-01-20T16:56:37.676Z,-2.86
2019-01-20T16:58:45.772Z,-2.81
2019-01-20T17:00:54.322Z,-2.82
2019-01-20T17:03:02.323Z,-2.86
2019-01-20T17:05:12.611Z,-2.80
2019-01-20T17:07:20.630Z,-2.84
2019-01-20T17:09:29.594Z,-2.92
2019-01-20T17:11:38.052Z,-2.88
2019-01-20T17:13:46.755Z,-2.93
2019-01-20T17:15:54.728Z,-2.95
2019-01-20T17:18:02.105Z,-2.87
2019-01-20T17:20:10.885Z,-2.90
2019-01-20T17:22:19.034Z,-2.96
2019-01-20T17:24:27.468Z,-2.99
2019-01-20T17:26:35.649Z,-2.97
2019-01-20T17:28:45.548Z,-2.93
2019-01-20T17:30:53.674Z,-2.91
2019-01-20T17:33:01.474Z,-2.87
2019-01-20T17:35:11.093Z,-2.86
2019-01-20T17:37:19.444Z,-2.90
2019-01-20T17:39:27.632Z,-2.92
2019-01-20T17:41:35.931Z,-2.94
2019-01-20T17:43:44.587Z,-2.91
2019-01-20T17:45:52.364Z,-2.86
2019-01-20T17:48:00.730Z,-2.92
2019-01-20T17:50:14.695Z,-2.93
2019-01-20T17:52:23.262Z,-2.90
2019-01-20T17:54:31.253Z,-2.92
2019-01-20T17:56:39.485Z,-2.93
2019-01-20T17:58:48.053Z,-2.95
2019-01-20T18:01:05.968Z,-2.88
2019-01-20T18:03:14.365Z,-2.94
2019-01-20T18:05:24.514Z,-2.91
2019-01-20T18:07:32.253Z,-2.97
2019-01-20T18:09:39.961Z,-2.95
2019-01-20T18:11:48.839Z,-2.91
2019-01-20T18:13:56.734Z,-2.95
2019-01-20T18:16:04.775Z,-2.98
2019-01-20T18:18:13.026Z,-2.99
2019-01-20T18:20:24.072Z,-3.05
2019-01-20T18:22:32.331Z,-3.01
2019-01-20T18:24:40.930Z,-3.08
2019-01-20T18:26:49.747Z,-3.05
2019-01-20T18:28:57.769Z,-2.97
2019-01-20T18:31:06.010Z,-3.00
2019-01-20T18:33:14.397Z,-3.05
2019-01-20T18:35:23.342Z,-3.01
2019-01-20T18:37:31.053Z,-3.02
2019-01-20T18:39:39.054Z,-3.05
2019-01-20T18:41:46.953Z,-3.09
2019-01-20T18:43:54.601Z,-3.01
2019-01-20T18:46:02.594Z,-2.95
2019-01-20T18:48:10.231Z,-2.96
2019-01-20T18:50:21.154Z,-3.03
2019-01-20T18:52:29.243Z,-3.00
2019-01-20T18:54:36.778Z,-3.01
2019-01-20T18:56:44.627Z,-2.98
2019-01-20T18:58:52.385Z,-2.96
2019-01-20T19:01:00.300Z,-3.01
2019-01-20T19:03:07.647Z,-2.91
2019-01-20T19:05:16.589Z,-2.96
2019-01-20T19:07:24.253Z,-3.01
2019-01-20T19:09:31.751Z,-3.06
2019-01-20T19:11:40.453Z,-2.99
2019-01-20T19:13:48.354Z,-3.03
2019-01-20T19:15:56.208Z,-3.01
2019-01-20T19:18:06.603Z,-2.94
2019-01-20T19:20:24.670Z,-2.95
2019-01-20T19:22:32.913Z,-2.97
2019-01-20T19:24:40.766Z,-3.05
2019-01-20T19:26:48.451Z,-3.03
2019-01-20T19:29:02.800Z,-3.14
2019-01-20T19:31:04.869Z,-3.07
2019-01-20T19:33:14.736Z,-3.24
2019-01-20T19:35:22.987Z,-3.21
2019-01-20T19:37:32.329Z,-3.19
2019-01-20T19:39:40.313Z,-3.18
2019-01-20T19:41:48.428Z,-3.38
2019-01-20T19:43:56.109Z,-3.37
2019-01-20T19:46:06.113Z,-3.37
2019-01-20T19:48:20.094Z,-3.28
2019-01-20T19:50:23.808Z,-3.34
2019-01-20T19:52:31.372Z,-3.33
2019-01-20T19:54:39.885Z,-3.38
2019-01-20T19:56:47.662Z,-3.42
2019-01-20T19:58:55.124Z,-3.70
2019-01-20T20:01:02.609Z,-3.67
2019-01-20T20:03:10.832Z,-3.69
2019-01-20T20:05:20.380Z,-3.60
2019-01-20T20:07:28.031Z,-3.67
2019-01-20T20:09:35.715Z,-3.83
2019-01-20T20:11:43.404Z,-3.72
2019-01-20T20:13:50.991Z,-3.82
2019-01-20T20:15:58.714Z,-3.86
2019-01-20T20:18:06.689Z,-3.90
2019-01-20T20:20:14.646Z,-3.93
2019-01-20T20:22:22.756Z,-3.92
2019-01-20T20:24:30.506Z,-4.00
2019-01-20T20:26:38.664Z,-3.97
2019-01-20T20:28:46.440Z,-3.97
2019-01-20T20:30:54.018Z,-4.03
2019-01-20T20:33:01.868Z,-3.81
2019-01-20T20:35:09.984Z,-3.77
2019-01-20T20:37:17.625Z,-3.77
2019-01-20T20:39:25.582Z,-3.74
2019-01-20T20:41:33.279Z,-3.89
2019-01-20T20:43:41.644Z,-3.79
2019-01-20T20:45:49.688Z,-4.01
2019-01-20T20:47:57.933Z,-3.82
2019-01-20T20:50:05.769Z,-3.88
2019-01-20T20:52:13.307Z,-3.80
2019-01-20T20:54:20.885Z,-3.81
2019-01-20T20:56:28.402Z,-3.70
2019-01-20T20:58:35.830Z,-3.64
2019-01-20T21:00:46.972Z,-3.60
2019-01-20T21:02:55.008Z,-3.50
2019-01-20T21:05:02.581Z,-3.58
2019-01-20T21:07:10.403Z,-3.54
2019-01-20T21:09:17.987Z,-3.54
2019-01-20T21:11:25.526Z,-3.49
2019-01-20T21:13:33.152Z,-3.41
2019-01-20T21:15:40.515Z,-3.40
2019-01-20T21:17:48.701Z,-3.37
2019-01-20T21:19:56.475Z,-3.48
2019-01-20T21:22:03.719Z,-3.53
2019-01-20T21:24:10.947Z,-3.39
2019-01-20T21:26:18.589Z,-3.35
2019-01-20T21:28:26.094Z,-3.31
2019-01-20T21:30:33.220Z,-3.35
2019-01-20T21:32:40.352Z,-3.35
2019-01-20T21:34:47.513Z,-3.34
2019-01-20T21:36:54.677Z,-3.34
2019-01-20T21:39:02.330Z,-3.31
2019-01-20T21:41:09.500Z,-3.32
2019-01-20T21:43:16.572Z,-3.31
2019-01-20T21:45:24.560Z,-3.27
2019-01-20T21:47:31.788Z,-3.27
2019-01-20T21:49:39.148Z,-3.31
2019-01-20T21:51:46.733Z,-3.29
2019-01-20T21:53:54.168Z,-3.29
2019-01-20T21:56:02.526Z,-3.24
2019-01-20T21:58:09.873Z,-3.27
2019-01-20T22:00:21.219Z,-3.27
2019-01-20T22:02:28.562Z,-3.28
2019-01-20T22:04:37.906Z,-3.22
2019-01-20T22:06:45.061Z,-3.25
2019-01-20T22:08:52.431Z,-3.19
2019-01-20T22:11:00.118Z,-3.25
2019-01-20T22:13:07.225Z,-3.21
2019-01-20T22:15:14.736Z,-3.17
2019-01-20T22:17:22.433Z,-3.17
2019-01-20T22:19:30.047Z,-3.17
2019-01-20T22:21:37.399Z,-3.14
2019-01-20T22:23:45.070Z,-3.13
2019-01-20T22:25:52.615Z,-3.17
2019-01-20T22:27:59.942Z,-3.17
2019-01-20T22:30:14.737Z,-3.18
2019-01-20T22:32:21.912Z,-3.13
2019-01-20T22:34:29.027Z,-3.15
2019-01-20T22:36:36.253Z,-3.12
2019-01-20T22:38:43.376Z,-3.13
2019-01-20T22:40:50.514Z,-3.15
2019-01-20T22:42:59.136Z,-3.13
2019-01-20T22:45:07.427Z,-3.15
2019-01-20T22:47:15.008Z,-3.14
2019-01-20T22:49:22.361Z,-3.14
2019-01-20T22:51:29.439Z,-3.15
2019-01-20T22:53:36.486Z,-3.14
2019-01-20T22:55:43.703Z,-3.14
2019-01-20T22:57:50.877Z,-3.11
2019-01-20T23:02:29.322Z,-3.08
2019-01-20T23:04:36.381Z,-3.10
2019-01-20T23:06:43.477Z,-3.14
2019-01-20T23:08:50.668Z,-3.13
2019-01-20T23:10:57.727Z,-3.12
2019-01-20T23:13:04.939Z,-3.11
2019-01-20T23:15:12.567Z,-3.11
2019-01-20T23:17:19.575Z,-3.16
2019-01-20T23:19:26.614Z,-3.18
2019-01-20T23:21:33.771Z,-3.15
2019-01-20T23:23:40.882Z,-3.14
2019-01-20T23:25:48.010Z,-3.11
2019-01-20T23:27:55.408Z,-3.14
2019-01-20T23:30:02.799Z,-3.11
2019-01-20T23:32:10.166Z,-3.09
2019-01-20T23:34:17.839Z,-3.16
2019-01-20T23:36:25.268Z,-3.11
2019-01-20T23:38:32.335Z,-3.09
2019-01-20T23:40:39.408Z,-3.08
2019-01-20T23:42:46.542Z,-3.08
2019-01-20T23:44:53.617Z,-3.13
2019-01-20T23:47:00.648Z,-3.12
2019-01-20T23:49:07.931Z,-3.07
2019-01-20T23:51:15.343Z,-3.12
2019-01-20T23:53:22.491Z,-3.13
2019-01-20T23:55:29.576Z,-3.12
2019-01-20T23:57:36.989Z,-3.10
2019-01-20T23:59:44.288Z,-3.15
